Time;durP1;ratioP1;P1;durP2;ratioP2;P2;SDS_P1;SDS_P2;PMS_P1;PMS_P2;Temp;Humidity;BMP_temperature;BMP_pressure;BME280_temperature;BME280_humidity;BME280_pressure;Samples;Min_cycle;Max_cycle;Signal;HPM_P1;HPM_P2
2021/08/27 00:00:10;;;;;;;7.32;3.40;;;24.60;96.70;;;;;;4965673;28;20070;-84
2021/08/27 00:02:39;;;;;;;6.53;3.42;;;24.60;96.70;;;;;;4967883;28;20051;-83
2021/08/27 00:05:12;;;;;;;6.72;3.10;;;24.50;96.70;;;;;;4963925;28;20142;-83
2021/08/27 00:07:40;;;;;;;8.77;3.45;;;24.50;96.70;;;;;;4961744;28;20133;-83
2021/08/27 00:10:09;;;;;;;10.90;4.10;;;24.50;96.70;;;;;;4967460;28;20532;-83
2021/08/27 00:12:37;;;;;;;8.65;3.50;;;24.50;96.70;;;;;;4964424;28;20043;-83
2021/08/27 00:15:07;;;;;;;7.78;3.65;;;24.50;96.70;;;;;;4966001;28;20047;-83
2021/08/27 00:17:36;;;;;;;7.03;3.38;;;24.50;96.70;;;;;;4964188;28;20053;-83
2021/08/27 00:20:06;;;;;;;6.80;3.50;;;24.50;96.70;;;;;;4962966;28;20049;-83
2021/08/27 00:22:37;;;;;;;6.47;3.05;;;24.50;96.70;;;;;;4947556;28;20046;-83
2021/08/27 00:25:06;;;;;;;5.30;3.08;;;24.40;96.70;;;;;;4964713;28;20056;-83
2021/08/27 00:27:35;;;;;;;5.07;3.15;;;24.40;96.70;;;;;;4965067;28;20043;-83
2021/08/27 00:30:04;;;;;;;11.90;3.78;;;24.40;96.70;;;;;;4968154;28;20043;-83
2021/08/27 00:32:32;;;;;;;8.00;3.25;;;24.30;96.70;;;;;;4957123;28;20505;-83
2021/08/27 00:35:05;;;;;;;5.63;3.40;;;24.30;96.70;;;;;;4960585;28;20039;-83
2021/08/27 00:37:35;;;;;;;9.48;3.30;;;24.30;96.70;;;;;;4968895;28;20321;-83
2021/08/27 00:40:05;;;;;;;9.52;3.75;;;24.10;96.70;;;;;;4962759;28;20220;-83
2021/08/27 00:42:33;;;;;;;6.57;2.60;;;24.20;96.70;;;;;;4964064;28;20126;-83
2021/08/27 00:45:02;;;;;;;8.18;3.10;;;24.30;96.70;;;;;;4967776;28;20047;-84
2021/08/27 00:47:30;;;;;;;8.43;3.80;;;24.30;96.70;;;;;;4965667;28;20053;-83
2021/08/27 00:49:58;;;;;;;8.93;3.63;;;24.50;96.70;;;;;;4964203;28;20061;-84
2021/08/27 00:52:27;;;;;;;12.73;3.20;;;24.60;96.70;;;;;;4945641;28;20510;-83
2021/08/27 00:54:57;;;;;;;8.55;3.00;;;24.60;96.70;;;;;;4966311;28;20047;-83
2021/08/27 00:57:25;;;;;;;5.78;3.15;;;24.70;96.70;;;;;;4964147;28;20160;-83
2021/08/27 00:59:53;;;;;;;12.02;4.20;;;24.70;96.70;;;;;;4965179;28;20051;-84
2021/08/27 01:02:22;;;;;;;9.25;3.63;;;24.70;96.70;;;;;;4947829;28;20089;-83
2021/08/27 01:04:54;;;;;;;7.70;3.28;;;24.70;96.70;;;;;;4964648;28;20049;-83
2021/08/27 01:07:25;;;;;;;8.52;3.35;;;24.70;96.70;;;;;;4965025;28;20061;-83
2021/08/27 01:10:03;;;;;;;9.30;3.83;;;24.70;96.70;;;;;;4994260;28;20042;-83
2021/08/27 01:12:38;;;;;;;11.63;3.17;;;24.70;96.70;;;;;;4961082;28;20533;-84
2021/08/27 01:15:14;;;;;;;7.97;3.58;;;24.70;96.70;;;;;;4962033;28;20490;-84
2021/08/27 01:17:46;;;;;;;7.22;3.38;;;24.60;96.70;;;;;;4953069;28;20436;-85
2021/08/27 01:20:41;;;;;;;8.07;3.33;;;24.50;96.70;;;;;;4961314;28;20055;-84
2021/08/27 01:23:23;;;;;;;7.60;3.58;;;24.50;96.70;;;;;;4945568;28;20055;-84
2021/08/27 01:25:58;;;;;;;6.13;3.10;;;24.50;96.70;;;;;;4961173;28;20055;-84
2021/08/27 01:28:29;;;;;;;6.80;3.17;;;24.50;96.70;;;;;;4978528;28;20065;-84
2021/08/27 01:31:07;;;;;;;5.70;2.92;;;24.40;96.70;;;;;;4966515;28;20110;-84
2021/08/27 01:33:44;;;;;;;8.10;3.70;;;24.40;96.70;;;;;;4965418;28;20093;-84
2021/08/27 01:36:15;;;;;;;5.20;2.90;;;24.30;96.70;;;;;;4967147;28;20121;-84
2021/08/27 01:38:44;;;;;;;6.78;2.88;;;24.40;96.70;;;;;;4966745;28;20157;-84
2021/08/27 01:41:15;;;;;;;5.43;2.70;;;24.40;96.70;;;;;;4965043;28;20517;-84
2021/08/27 01:43:44;;;;;;;4.85;2.65;;;24.40;96.70;;;;;;4960018;28;20138;-84
2021/08/27 01:46:13;;;;;;;7.25;3.13;;;24.40;96.70;;;;;;4961763;28;20050;-84
2021/08/27 01:48:46;;;;;;;5.15;3.00;;;24.30;96.70;;;;;;4945655;28;20059;-84
2021/08/27 01:51:16;;;;;;;8.60;3.08;;;24.40;96.70;;;;;;4966556;28;20200;-84
2021/08/27 01:53:45;;;;;;;5.18;2.80;;;24.30;96.70;;;;;;4965213;28;20046;-84
2021/08/27 01:56:16;;;;;;;6.53;2.65;;;24.30;96.70;;;;;;4948295;28;20039;-84
2021/08/27 01:58:45;;;;;;;5.18;2.78;;;24.30;96.70;;;;;;4942439;28;20046;-84
2021/08/27 02:01:15;;;;;;;5.85;2.78;;;24.30;96.70;;;;;;4942834;28;20169;-84
2021/08/27 02:03:47;;;;;;;4.63;2.70;;;24.20;96.70;;;;;;4957568;28;20047;-83
2021/08/27 02:06:17;;;;;;;6.97;2.75;;;24.20;96.70;;;;;;4965227;28;20056;-84
2021/08/27 02:08:46;;;;;;;6.28;3.03;;;24.20;96.70;;;;;;4963906;28;20046;-83
2021/08/27 02:11:15;;;;;;;5.70;2.97;;;24.20;96.70;;;;;;4962497;28;20141;-84
2021/08/27 02:13:44;;;;;;;9.85;3.40;;;24.10;96.70;;;;;;4965623;28;20042;-83
2021/08/27 02:16:15;;;;;;;6.18;2.65;;;24.10;96.70;;;;;;4963570;28;20102;-83
2021/08/27 02:18:43;;;;;;;6.10;3.10;;;24.10;96.70;;;;;;4968184;28;20051;-83
2021/08/27 02:21:13;;;;;;;7.45;3.35;;;24.10;96.70;;;;;;4963848;28;20046;-84
2021/08/27 02:23:46;;;;;;;5.72;3.00;;;24.00;96.70;;;;;;4944452;28;20132;-84
2021/08/27 02:26:16;;;;;;;6.60;2.90;;;24.00;96.70;;;;;;4970604;28;20051;-84
2021/08/27 02:28:46;;;;;;;9.20;2.85;;;24.00;96.70;;;;;;4963102;28;20039;-84
2021/08/27 02:31:16;;;;;;;4.97;2.65;;;23.90;96.70;;;;;;4964667;28;20053;-83
2021/08/27 02:33:47;;;;;;;7.03;3.40;;;23.90;96.70;;;;;;4960266;28;20409;-85
2021/08/27 02:36:18;;;;;;;6.45;2.80;;;23.90;96.70;;;;;;4965500;28;20078;-84
2021/08/27 02:38:50;;;;;;;6.35;3.10;;;23.90;96.70;;;;;;4962738;28;20065;-84
2021/08/27 02:41:19;;;;;;;5.78;2.58;;;23.80;96.70;;;;;;4963200;28;20043;-85
2021/08/27 02:43:47;;;;;;;6.70;2.92;;;23.80;96.70;;;;;;4965192;28;20396;-84
2021/08/27 02:46:16;;;;;;;5.80;2.90;;;23.70;96.70;;;;;;4957757;28;20053;-84
2021/08/27 02:48:44;;;;;;;6.95;2.72;;;23.70;96.70;;;;;;4959061;28;20578;-84
2021/08/27 02:51:15;;;;;;;4.75;2.42;;;23.60;96.70;;;;;;4963103;28;20042;-84
2021/08/27 02:53:49;;;;;;;6.43;3.40;;;23.60;96.70;;;;;;4964437;28;20047;-84
2021/08/27 02:56:25;;;;;;;7.45;3.05;;;23.60;96.70;;;;;;4960515;28;20322;-84
2021/08/27 02:58:55;;;;;;;8.00;3.20;;;23.60;96.70;;;;;;4959116;28;20504;-84
2021/08/27 03:01:37;;;;;;;8.15;3.00;;;23.40;96.70;;;;;;4960375;28;20055;-84
2021/08/27 03:04:11;;;;;;;5.68;2.78;;;23.30;96.70;;;;;;4952945;28;20055;-83
2021/08/27 03:06:48;;;;;;;8.82;3.63;;;23.30;96.70;;;;;;4959117;28;20129;-84
2021/08/27 03:09:18;;;;;;;8.43;2.78;;;23.30;96.70;;;;;;4950713;28;20047;-84
2021/08/27 03:11:52;;;;;;;6.03;3.20;;;23.30;96.70;;;;;;4963939;28;20034;-84
2021/08/27 03:14:28;;;;;;;8.43;3.33;;;23.30;96.70;;;;;;4963793;28;20047;-84
2021/08/27 03:17:01;;;;;;;9.23;3.90;;;23.30;96.70;;;;;;4971956;28;20058;-84
2021/08/27 03:19:36;;;;;;;9.57;4.00;;;23.20;96.70;;;;;;4970509;28;20050;-84
2021/08/27 03:22:10;;;;;;;8.82;3.67;;;23.20;96.70;;;;;;4961851;28;20050;-84
2021/08/27 03:24:48;;;;;;;8.45;3.15;;;23.00;96.70;;;;;;4964153;28;20038;-84
2021/08/27 03:27:22;;;;;;;8.27;3.88;;;23.00;96.70;;;;;;4978491;28;20063;-84
2021/08/27 03:29:54;;;;;;;7.60;3.88;;;23.00;96.70;;;;;;4963231;28;20043;-84
2021/08/27 03:32:24;;;;;;;7.72;3.85;;;23.00;96.70;;;;;;4968736;28;20043;-84
2021/08/27 03:34:53;;;;;;;6.55;3.42;;;22.90;96.70;;;;;;4949509;28;20042;-85
2021/08/27 03:37:23;;;;;;;9.63;3.50;;;22.90;96.70;;;;;;4968610;28;20093;-84
2021/08/27 03:39:55;;;;;;;7.97;3.25;;;22.80;96.70;;;;;;4965284;28;20567;-84
2021/08/27 03:42:24;;;;;;;5.78;3.38;;;22.70;96.70;;;;;;4964078;28;20050;-85
2021/08/27 03:44:56;;;;;;;6.95;3.33;;;22.60;96.70;;;;;;4975572;28;20100;-84
2021/08/27 03:47:24;;;;;;;8.18;3.85;;;22.60;96.70;;;;;;4966795;28;20047;-85
2021/08/27 03:49:53;;;;;;;5.38;3.00;;;22.60;96.70;;;;;;4962668;28;20051;-84
2021/08/27 03:52:22;;;;;;;7.90;3.25;;;22.60;96.70;;;;;;4966725;28;20067;-84
2021/08/27 03:54:54;;;;;;;10.95;3.38;;;22.60;96.70;;;;;;4948627;28;20054;-85
2021/08/27 03:57:22;;;;;;;6.30;3.50;;;22.50;96.70;;;;;;4968182;28;20058;-84
2021/08/27 03:59:50;;;;;;;9.18;3.22;;;22.50;96.70;;;;;;4964786;28;20058;-84
2021/08/27 04:02:19;;;;;;;6.95;3.90;;;22.50;96.70;;;;;;4958986;28;20516;-83
2021/08/27 04:04:47;;;;;;;6.65;3.40;;;22.50;96.70;;;;;;4965793;28;20043;-84
2021/08/27 04:07:18;;;;;;;7.65;3.55;;;22.40;96.70;;;;;;4952669;28;20149;-85
2021/08/27 04:09:47;;;;;;;8.23;3.80;;;22.40;96.70;;;;;;4964781;28;20117;-84
2021/08/27 04:12:18;;;;;;;8.65;3.25;;;22.30;96.70;;;;;;4956730;28;20046;-84
2021/08/27 04:14:46;;;;;;;8.88;3.97;;;22.30;96.70;;;;;;4971680;28;20050;-84
2021/08/27 04:17:14;;;;;;;5.43;2.88;;;22.40;96.70;;;;;;4965807;28;20040;-85
2021/08/27 04:19:42;;;;;;;5.68;2.97;;;22.30;96.70;;;;;;4948820;28;20528;-85
2021/08/27 04:22:10;;;;;;;6.28;3.08;;;22.40;96.70;;;;;;4966529;28;20042;-84
2021/08/27 04:24:38;;;;;;;4.70;3.03;;;22.30;96.70;;;;;;4962220;28;20127;-84
2021/08/27 04:27:06;;;;;;;7.78;2.95;;;22.30;96.70;;;;;;4965428;28;20043;-83
2021/08/27 04:29:35;;;;;;;4.72;2.75;;;22.30;96.70;;;;;;4945658;28;20164;-84
2021/08/27 04:32:04;;;;;;;7.68;2.97;;;22.30;96.70;;;;;;4965459;28;20047;-84
2021/08/27 04:34:32;;;;;;;7.68;3.65;;;22.30;96.70;;;;;;4969758;28;20057;-84
2021/08/27 04:37:00;;;;;;;8.52;3.55;;;22.30;96.70;;;;;;4961651;28;20053;-84
2021/08/27 04:39:28;;;;;;;5.20;3.28;;;22.30;96.70;;;;;;4960426;28;20070;-84
2021/08/27 04:41:56;;;;;;;6.20;3.40;;;22.30;96.70;;;;;;4947541;28;20524;-84
2021/08/27 04:44:24;;;;;;;7.05;3.33;;;22.30;96.70;;;;;;4960307;28;20043;-84
2021/08/27 04:46:54;;;;;;;10.00;3.13;;;22.30;96.70;;;;;;4964513;28;20035;-84
2021/08/27 04:49:22;;;;;;;5.90;2.30;;;22.30;96.70;;;;;;4959047;28;20655;-84
2021/08/27 04:51:50;;;;;;;8.85;3.35;;;22.30;96.70;;;;;;4962801;28;20795;-85
2021/08/27 04:54:18;;;;;;;7.75;3.72;;;22.40;96.70;;;;;;4947602;28;20571;-85
2021/08/27 04:56:46;;;;;;;7.03;3.15;;;22.40;96.70;;;;;;4965558;28;20043;-84
2021/08/27 04:59:15;;;;;;;6.60;2.85;;;22.40;96.70;;;;;;4965358;28;20521;-84
2021/08/27 05:01:43;;;;;;;10.35;3.78;;;22.50;96.70;;;;;;4965107;28;20152;-85
2021/08/27 05:04:12;;;;;;;6.90;3.03;;;22.40;96.70;;;;;;4967915;28;20054;-85
2021/08/27 05:06:41;;;;;;;7.70;3.10;;;22.50;96.70;;;;;;4960790;28;20121;-86
2021/08/27 05:09:17;;;;;;;6.63;3.17;;;22.50;96.70;;;;;;4966102;28;20261;-84
2021/08/27 05:11:45;;;;;;;9.43;3.22;;;22.50;96.70;;;;;;4948763;28;20046;-84
2021/08/27 05:14:13;;;;;;;8.63;3.35;;;22.60;96.70;;;;;;4963736;28;20097;-84
2021/08/27 05:16:41;;;;;;;6.65;3.50;;;22.60;96.70;;;;;;4961493;28;20055;-84
2021/08/27 05:19:09;;;;;;;7.30;2.85;;;22.60;96.70;;;;;;4979971;28;20549;-84
2021/08/27 05:21:39;;;;;;;7.18;3.55;;;22.60;96.70;;;;;;4964213;28;20301;-84
2021/08/27 05:24:07;;;;;;;5.53;3.08;;;22.60;96.70;;;;;;4959740;28;20286;-84
2021/08/27 05:26:36;;;;;;;9.48;3.42;;;22.60;96.70;;;;;;4958402;28;20061;-84
2021/08/27 05:29:05;;;;;;;6.95;3.50;;;22.70;96.70;;;;;;4965761;28;20152;-84
2021/08/27 05:31:34;;;;;;;10.65;4.13;;;22.70;96.70;;;;;;4984819;28;20047;-83
2021/08/27 05:34:06;;;;;;;6.80;2.95;;;22.70;96.70;;;;;;4960095;28;20065;-84
2021/08/27 05:36:34;;;;;;;5.70;3.05;;;22.70;96.70;;;;;;4964747;28;20473;-84
2021/08/27 05:39:04;;;;;;;7.72;3.70;;;22.70;96.70;;;;;;4979375;28;20055;-84
2021/08/27 05:41:34;;;;;;;8.30;3.40;;;22.70;96.70;;;;;;4972851;28;20052;-84
2021/08/27 05:44:02;;;;;;;7.72;3.33;;;22.80;96.70;;;;;;4968280;28;20051;-84
2021/08/27 05:46:30;;;;;;;7.28;3.80;;;22.80;96.70;;;;;;4962265;28;20038;-84
2021/08/27 05:48:59;;;;;;;9.40;3.55;;;22.70;96.70;;;;;;4961121;28;21317;-83
2021/08/27 05:51:27;;;;;;;9.88;3.45;;;22.80;96.70;;;;;;4962987;28;20042;-84
2021/08/27 05:53:55;;;;;;;6.40;3.25;;;22.70;96.70;;;;;;4970942;28;20047;-83
2021/08/27 05:56:24;;;;;;;5.80;3.03;;;22.80;96.70;;;;;;4968206;28;20035;-85
2021/08/27 05:58:52;;;;;;;7.38;3.30;;;22.90;96.70;;;;;;4958845;28;20356;-84
2021/08/27 06:01:21;;;;;;;5.97;3.58;;;22.90;96.70;;;;;;4965046;28;20081;-84
2021/08/27 06:03:49;;;;;;;9.15;3.67;;;22.90;96.70;;;;;;4964317;28;20043;-85
2021/08/27 06:06:18;;;;;;;8.13;3.17;;;23.00;96.70;;;;;;4952387;28;20074;-84
2021/08/27 06:08:46;;;;;;;8.50;3.10;;;23.00;96.70;;;;;;4944249;28;20133;-84
2021/08/27 06:11:14;;;;;;;8.55;3.67;;;23.10;96.70;;;;;;4971608;28;20173;-84
2021/08/27 06:13:43;;;;;;;6.93;3.42;;;23.20;96.70;;;;;;4959854;28;20506;-84
2021/08/27 06:16:11;;;;;;;13.27;3.65;;;23.20;96.70;;;;;;4961036;28;20047;-84
2021/08/27 06:18:39;;;;;;;10.27;3.78;;;23.30;96.70;;;;;;4948759;28;20047;-84
2021/08/27 06:21:07;;;;;;;13.45;3.70;;;23.30;96.70;;;;;;4958892;28;20039;-84
2021/08/27 06:23:35;;;;;;;7.03;2.92;;;23.40;96.70;;;;;;4963323;28;20460;-84
2021/08/27 06:26:03;;;;;;;7.68;3.13;;;23.60;96.70;;;;;;4962218;28;20078;-84
2021/08/27 06:28:31;;;;;;;5.80;3.10;;;23.60;96.70;;;;;;4960544;28;20062;-84
2021/08/27 06:31:01;;;;;;;7.35;3.45;;;23.70;96.70;;;;;;4965395;28;20146;-85
2021/08/27 06:33:31;;;;;;;7.90;3.22;;;23.80;96.70;;;;;;4974490;28;20062;-85
2021/08/27 06:35:59;;;;;;;5.00;2.95;;;23.90;96.70;;;;;;4963950;28;20039;-84
2021/08/27 06:38:27;;;;;;;9.05;3.03;;;24.00;96.70;;;;;;4944895;28;20074;-84
2021/08/27 06:40:59;;;;;;;7.65;2.80;;;24.10;96.70;;;;;;4962045;28;20047;-84
2021/08/27 06:43:30;;;;;;;7.78;3.05;;;24.20;96.70;;;;;;4964657;28;20152;-83
2021/08/27 06:46:03;;;;;;;7.75;3.38;;;24.30;96.70;;;;;;4962680;28;20042;-84
2021/08/27 06:48:32;;;;;;;7.65;3.80;;;24.50;96.70;;;;;;4962543;28;20109;-84
2021/08/27 06:51:00;;;;;;;10.45;4.05;;;24.70;96.70;;;;;;4961865;28;20051;-84
2021/08/27 06:53:28;;;;;;;6.78;3.13;;;24.80;96.70;;;;;;4962596;28;20497;-84
2021/08/27 06:55:56;;;;;;;8.35;3.40;;;24.90;96.70;;;;;;4963176;28;20039;-84
2021/08/27 06:58:24;;;;;;;6.72;3.15;;;24.90;96.70;;;;;;4961711;28;20046;-86
2021/08/27 07:00:53;;;;;;;6.28;3.10;;;24.90;96.70;;;;;;4959538;28;20401;-86
2021/08/27 07:03:28;;;;;;;6.85;3.35;;;25.00;96.70;;;;;;4966060;28;20043;-85
2021/08/27 07:05:56;;;;;;;11.52;3.85;;;25.00;96.70;;;;;;4957281;28;20497;-84
2021/08/27 07:08:24;;;;;;;6.38;3.17;;;25.10;96.70;;;;;;4977066;28;20050;-83
2021/08/27 07:10:53;;;;;;;8.18;3.67;;;25.20;96.70;;;;;;4964831;28;20583;-84
2021/08/27 07:13:21;;;;;;;8.35;3.42;;;25.30;96.70;;;;;;4964392;28;20054;-87
2021/08/27 07:15:50;;;;;;;9.25;3.30;;;25.40;96.70;;;;;;4962853;28;20121;-83
2021/08/27 07:18:18;;;;;;;7.18;2.45;;;25.40;96.70;;;;;;4998096;28;20555;-84
2021/08/27 07:20:48;;;;;;;8.27;3.17;;;25.40;96.70;;;;;;4950848;28;20050;-89
2021/08/27 07:23:16;;;;;;;9.10;3.10;;;25.50;96.70;;;;;;4965591;28;20066;-83
2021/08/27 07:25:45;;;;;;;5.28;2.80;;;25.50;96.70;;;;;;4959643;28;20066;-93
2021/08/27 07:28:13;;;;;;;4.45;2.47;;;25.60;96.70;;;;;;4964414;28;20046;-86
2021/08/27 07:30:41;;;;;;;4.78;2.63;;;25.70;96.70;;;;;;4964687;28;20053;-82
2021/08/27 07:33:09;;;;;;;5.90;2.60;;;25.80;96.70;;;;;;4969362;28;20038;-83
2021/08/27 07:35:37;;;;;;;4.47;2.30;;;25.90;96.70;;;;;;4957519;28;20521;-83
2021/08/27 07:38:07;;;;;;;5.75;2.83;;;25.90;96.70;;;;;;4969089;28;20066;-84
2021/08/27 07:40:35;;;;;;;4.82;2.30;;;25.90;96.70;;;;;;4967799;28;20047;-84
2021/08/27 07:43:03;;;;;;;4.97;2.25;;;26.00;96.70;;;;;;4970137;28;20047;-81
2021/08/27 07:45:32;;;;;;;4.82;2.58;;;26.10;96.70;;;;;;4969722;28;20034;-82
2021/08/27 07:48:00;;;;;;;8.82;2.60;;;26.20;96.70;;;;;;4950820;28;20054;-82
2021/08/27 07:50:28;;;;;;;5.18;2.38;;;26.30;96.70;;;;;;4937440;28;20039;-79
2021/08/27 07:52:56;;;;;;;5.18;2.92;;;26.30;96.70;;;;;;4967544;28;20439;-81
2021/08/27 07:55:29;;;;;;;4.53;2.30;;;26.30;96.70;;;;;;4970414;28;20339;-83
2021/08/27 07:57:58;;;;;;;6.47;2.70;;;26.40;96.70;;;;;;4951019;28;20038;-81
2021/08/27 08:00:26;;;;;;;6.82;2.65;;;26.40;96.70;;;;;;4972561;28;20051;-82
2021/08/27 08:02:55;;;;;;;7.80;2.80;;;26.50;96.70;;;;;;4967140;28;20696;-82
2021/08/27 08:05:24;;;;;;;5.00;2.70;;;26.60;96.70;;;;;;4963518;28;20097;-81
2021/08/27 08:07:52;;;;;;;4.43;2.53;;;26.60;96.70;;;;;;4977517;28;20042;-83
2021/08/27 08:10:20;;;;;;;5.85;2.55;;;26.70;96.70;;;;;;4952917;28;20076;-84
2021/08/27 08:12:50;;;;;;;6.80;2.70;;;26.70;96.70;;;;;;4964912;28;20101;-82
2021/08/27 08:15:22;;;;;;;5.68;2.42;;;26.70;96.70;;;;;;4969814;28;20048;-85
2021/08/27 08:17:53;;;;;;;11.70;3.53;;;26.80;96.70;;;;;;4966725;28;20046;-88
2021/08/27 08:20:21;;;;;;;6.70;2.72;;;26.80;96.70;;;;;;4982444;28;20054;-86
2021/08/27 08:23:00;;;;;;;5.85;2.58;;;26.80;96.70;;;;;;4967566;28;20055;-87
2021/08/27 08:25:29;;;;;;;6.13;2.50;;;26.90;96.70;;;;;;4961548;28;20063;-82
2021/08/27 08:27:59;;;;;;;7.30;3.03;;;27.00;96.70;;;;;;4963116;28;20134;-83
2021/08/27 08:30:28;;;;;;;4.75;2.70;;;27.00;96.70;;;;;;4961657;28;20035;-82
2021/08/27 08:32:57;;;;;;;5.78;2.72;;;27.10;96.70;;;;;;4968238;28;20457;-83
2021/08/27 08:35:28;;;;;;;10.25;3.28;;;27.20;96.70;;;;;;4963156;28;20039;-83
2021/08/27 08:37:56;;;;;;;8.20;3.03;;;27.30;96.70;;;;;;4966300;28;20043;-83
2021/08/27 08:40:25;;;;;;;4.22;2.55;;;27.50;96.70;;;;;;4968282;28;20050;-83
2021/08/27 08:42:54;;;;;;;3.90;2.33;;;27.70;96.70;;;;;;4969134;28;20042;-84
2021/08/27 08:45:24;;;;;;;4.90;2.63;;;27.70;96.70;;;;;;4949772;28;20061;-84
2021/08/27 08:47:56;;;;;;;6.05;2.20;;;27.80;96.70;;;;;;4967745;28;20473;-84
2021/08/27 08:50:24;;;;;;;8.32;2.78;;;28.00;96.70;;;;;;4982558;28;20038;-83
2021/08/27 08:52:54;;;;;;;4.95;2.10;;;28.20;96.70;;;;;;4964049;28;20039;-84
2021/08/27 08:55:23;;;;;;;4.45;2.40;;;28.20;96.70;;;;;;4962609;28;20047;-83
2021/08/27 08:57:52;;;;;;;4.68;2.28;;;28.40;96.70;;;;;;4966199;28;20097;-83
2021/08/27 09:00:21;;;;;;;7.95;3.25;;;28.40;96.70;;;;;;4967549;28;20039;-82
2021/08/27 09:02:51;;;;;;;5.75;2.40;;;28.40;96.70;;;;;;4964983;28;20042;-81
2021/08/27 09:05:20;;;;;;;4.85;3.08;;;28.20;96.70;;;;;;4964995;28;20133;-83
2021/08/27 09:07:49;;;;;;;4.93;2.35;;;28.20;96.70;;;;;;4964422;28;20038;-81
2021/08/27 09:10:18;;;;;;;3.58;2.40;;;28.40;96.70;;;;;;4963440;28;20035;-82
2021/08/27 09:12:47;;;;;;;6.15;2.72;;;28.50;96.70;;;;;;4968163;28;20935;-82
2021/08/27 09:15:19;;;;;;;4.63;2.33;;;28.60;96.70;;;;;;4960243;28;20053;-82
2021/08/27 09:17:51;;;;;;;4.75;2.55;;;28.60;96.70;;;;;;4978360;28;20129;-81
2021/08/27 09:20:21;;;;;;;4.28;2.20;;;28.70;95.90;;;;;;4969008;28;20049;-82
2021/08/27 09:22:51;;;;;;;4.22;2.30;;;28.70;95.20;;;;;;4977701;28;20057;-81
2021/08/27 09:25:21;;;;;;;4.25;2.10;;;28.60;94.90;;;;;;4974201;28;20051;-81
2021/08/27 09:28:04;;;;;;;3.88;2.10;;;28.50;94.30;;;;;;4986388;28;20055;-81
2021/08/27 09:30:34;;;;;;;4.50;2.38;;;28.50;94.30;;;;;;4965022;28;20059;-81
2021/08/27 09:33:12;;;;;;;3.42;2.45;;;28.50;95.10;;;;;;4964793;28;20142;-81
2021/08/27 09:35:54;;;;;;;4.05;2.13;;;28.60;95.50;;;;;;4962043;28;20051;-81
2021/08/27 09:38:26;;;;;;;3.28;2.17;;;28.60;96.20;;;;;;4961146;28;20050;-81
2021/08/27 09:41:03;;;;;;;4.03;2.08;;;28.60;95.00;;;;;;4966323;28;20050;-81
2021/08/27 09:43:43;;;;;;;4.68;2.45;;;28.70;94.70;;;;;;4965299;28;20122;-81
2021/08/27 09:46:30;;;;;;;3.90;2.08;;;28.90;94.20;;;;;;4962447;28;20058;-81
2021/08/27 09:49:01;;;;;;;4.63;2.22;;;29.00;94.00;;;;;;4952972;28;20062;-81
2021/08/27 09:51:42;;;;;;;4.60;2.10;;;29.00;93.30;;;;;;4965154;28;20046;-81
2021/08/27 09:54:21;;;;;;;3.70;1.98;;;29.00;91.70;;;;;;4961020;28;20416;-81
2021/08/27 09:56:52;;;;;;;2.90;1.80;;;28.90;91.20;;;;;;4974515;28;20057;-81
2021/08/27 09:59:35;;;;;;;3.17;2.00;;;29.10;90.20;;;;;;4943160;28;20046;-81
2021/08/27 10:02:04;;;;;;;4.43;1.83;;;29.40;89.60;;;;;;4979050;28;20051;-81
2021/08/27 10:04:36;;;;;;;4.45;1.88;;;29.50;88.90;;;;;;4958647;28;20077;-81
2021/08/27 10:07:04;;;;;;;2.78;1.90;;;29.50;89.80;;;;;;4960873;28;20561;-81
2021/08/27 10:09:44;;;;;;;2.72;1.77;;;29.40;89.40;;;;;;4965427;28;20535;-81
2021/08/27 10:12:13;;;;;;;3.38;1.75;;;29.40;89.60;;;;;;4959890;28;20039;-82
2021/08/27 10:14:42;;;;;;;3.22;1.92;;;29.70;89.10;;;;;;4962748;28;20521;-82
2021/08/27 10:17:13;;;;;;;2.55;1.88;;;29.80;88.20;;;;;;4968077;28;20046;-81
2021/08/27 10:19:43;;;;;;;6.28;1.80;;;29.80;88.20;;;;;;4968758;28;20445;-81
2021/08/27 10:22:11;;;;;;;5.80;2.13;;;29.90;88.40;;;;;;4975184;28;20098;-80
2021/08/27 10:24:43;;;;;;;3.30;2.08;;;30.00;87.60;;;;;;4947184;28;20063;-81
2021/08/27 10:27:14;;;;;;;4.22;1.77;;;30.20;86.60;;;;;;4960322;28;20047;-80
2021/08/27 10:29:48;;;;;;;1.95;1.58;;;30.20;86.80;;;;;;4963309;28;20042;-81
2021/08/27 10:32:46;;;;;;;3.00;1.63;;;30.40;86.50;;;;;;4959200;28;20463;-81
2021/08/27 10:35:47;;;;;;;3.13;1.88;;;30.60;86.30;;;;;;4958797;28;20051;-80
2021/08/27 10:38:43;;;;;;;4.65;2.30;;;30.80;84.80;;;;;;4957510;28;20408;-80
2021/08/27 10:41:18;;;;;;;3.70;2.03;;;30.70;84.10;;;;;;4943132;28;20057;-81
2021/08/27 10:43:59;;;;;;;3.15;2.08;;;30.60;84.60;;;;;;4962985;28;20047;-81
2021/08/27 10:47:03;;;;;;;3.28;2.10;;;30.70;84.70;;;;;;4963252;28;20043;-81
2021/08/27 10:49:54;;;;;;;4.05;2.15;;;30.80;83.20;;;;;;4961348;28;20051;-82
2021/08/27 10:52:25;;;;;;;3.40;2.20;;;30.70;83.10;;;;;;4960749;28;20416;-82
2021/08/27 10:55:08;;;;;;;2.63;1.85;;;30.70;83.50;;;;;;4972890;28;20093;-82
2021/08/27 10:57:48;;;;;;;5.00;2.33;;;30.90;82.90;;;;;;4958674;28;20051;-81
2021/08/27 11:00:36;;;;;;;2.88;2.05;;;31.10;82.70;;;;;;4963411;28;20073;-81
2021/08/27 11:03:06;;;;;;;3.40;1.80;;;31.30;81.60;;;;;;4968156;28;20062;-82
2021/08/27 11:05:40;;;;;;;2.35;1.73;;;31.20;82.20;;;;;;4965014;28;20145;-81
2021/08/27 11:08:12;;;;;;;4.00;2.33;;;31.10;81.70;;;;;;4963594;28;20042;-81
2021/08/27 11:11:22;;;;;;;4.15;2.17;;;30.80;81.70;;;;;;4991024;28;20102;-82
2021/08/27 11:13:50;;;;;;;4.95;2.50;;;30.60;82.40;;;;;;4963640;28;20046;-82
2021/08/27 11:16:25;;;;;;;4.65;2.05;;;30.40;82.60;;;;;;4957202;28;20074;-81
2021/08/27 11:18:54;;;;;;;4.07;2.40;;;30.50;83.40;;;;;;4958501;28;20047;-81
2021/08/27 11:21:31;;;;;;;2.53;1.92;;;30.50;83.10;;;;;;4961886;28;20501;-82
2021/08/27 11:24:15;;;;;;;3.40;1.92;;;30.60;82.10;;;;;;4959761;28;20071;-81
2021/08/27 11:26:46;;;;;;;4.45;2.42;;;30.40;82.20;;;;;;4957128;28;20521;-82
2021/08/27 11:29:29;;;;;;;4.28;2.20;;;30.30;82.20;;;;;;4962168;28;20071;-82
2021/08/27 11:31:58;;;;;;;3.17;2.15;;;30.40;83.00;;;;;;4956713;28;20053;-82
2021/08/27 11:34:26;;;;;;;3.97;2.55;;;30.80;82.40;;;;;;4960316;28;20497;-82
2021/08/27 11:36:55;;;;;;;3.78;2.15;;;31.10;83.00;;;;;;4961958;28;20066;-81
2021/08/27 11:39:26;;;;;;;4.60;2.17;;;31.30;81.90;;;;;;4961335;28;20533;-82
2021/08/27 11:41:55;;;;;;;3.90;2.10;;;31.70;81.20;;;;;;4963001;28;20047;-83
2021/08/27 11:44:24;;;;;;;2.80;2.22;;;31.80;80.50;;;;;;4961001;28;20157;-83
2021/08/27 11:46:53;;;;;;;3.25;2.00;;;32.10;79.80;;;;;;4946492;28;20049;-82
2021/08/27 11:49:27;;;;;;;2.90;2.33;;;32.20;79.10;;;;;;4940489;28;20487;-81
2021/08/27 11:52:11;;;;;;;4.90;2.28;;;32.30;78.80;;;;;;4962397;28;20047;-81
2021/08/27 11:54:41;;;;;;;3.55;2.25;;;32.60;78.70;;;;;;4954851;28;20053;-81
2021/08/27 11:57:15;;;;;;;4.80;2.20;;;32.70;78.00;;;;;;4962363;28;20039;-81
2021/08/27 11:59:43;;;;;;;2.97;1.92;;;32.80;77.50;;;;;;4955755;28;20067;-82
2021/08/27 12:02:17;;;;;;;2.35;2.10;;;32.90;77.60;;;;;;4967845;28;20073;-81
2021/08/27 12:04:55;;;;;;;3.13;2.08;;;33.00;76.90;;;;;;4963762;28;20105;-82
2021/08/27 12:07:27;;;;;;;1.98;1.80;;;33.00;76.70;;;;;;4958855;28;20051;-82
2021/08/27 12:10:09;;;;;;;1.70;1.60;;;33.00;76.30;;;;;;4966581;28;20494;-82
2021/08/27 12:12:39;;;;;;;2.65;1.90;;;32.80;76.30;;;;;;4957930;28;20054;-82
2021/08/27 12:15:10;;;;;;;4.50;2.17;;;32.90;76.60;;;;;;4965416;28;20070;-81
2021/08/27 12:17:39;;;;;;;4.95;1.80;;;33.20;76.30;;;;;;4966817;28;20047;-82
2021/08/27 12:20:10;;;;;;;3.45;2.00;;;33.40;76.40;;;;;;4961742;28;20039;-83
2021/08/27 12:22:44;;;;;;;2.22;1.88;;;33.60;75.80;;;;;;4950865;28;20047;-82
2021/08/27 12:25:24;;;;;;;2.25;1.98;;;33.40;74.50;;;;;;4967147;28;20390;-82
2021/08/27 12:28:15;;;;;;;3.30;2.30;;;33.40;74.70;;;;;;4958908;28;20062;-83
2021/08/27 12:30:45;;;;;;;5.78;2.38;;;33.20;75.30;;;;;;4963586;28;20386;-82
2021/08/27 12:33:14;;;;;;;2.85;2.00;;;33.30;74.40;;;;;;4964271;28;20042;-80
2021/08/27 12:35:43;;;;;;;3.38;2.17;;;33.30;74.40;;;;;;4962468;28;20046;-82
2021/08/27 12:38:15;;;;;;;4.43;2.03;;;33.00;74.80;;;;;;4961226;28;20566;-83
2021/08/27 12:40:45;;;;;;;2.67;1.75;;;32.60;75.10;;;;;;4965203;28;20035;-80
2021/08/27 12:43:14;;;;;;;2.55;2.00;;;32.90;74.90;;;;;;4963677;28;20034;-79
2021/08/27 12:45:45;;;;;;;4.00;2.03;;;33.00;74.80;;;;;;4964940;28;20050;-81
2021/08/27 12:48:18;;;;;;;2.90;2.05;;;32.90;74.50;;;;;;4960506;28;20063;-81
2021/08/27 12:50:51;;;;;;;2.10;1.83;;;33.00;74.40;;;;;;4978692;28;20042;-82
2021/08/27 12:53:27;;;;;;;4.22;2.25;;;33.30;73.80;;;;;;4967052;28;20047;-81
2021/08/27 12:56:15;;;;;;;4.05;2.08;;;33.50;73.90;;;;;;4963272;28;20504;-81
2021/08/27 12:58:45;;;;;;;2.38;1.83;;;33.70;73.40;;;;;;4968330;28;20047;-81
2021/08/27 13:01:16;;;;;;;4.85;2.20;;;33.50;73.20;;;;;;4959449;28;20054;-81
2021/08/27 13:03:47;;;;;;;2.75;2.22;;;33.50;72.50;;;;;;4968394;28;20062;-81
2021/08/27 13:06:32;;;;;;;3.30;2.25;;;33.60;73.10;;;;;;4963150;28;20049;-81